Terminal Aerodrome Forecast
Issued by NWS

Home | Current Version | Previous Version | Text Only | Print | Product List | Glossary On
Versions: 1 2 3 4 5 6 7 8 9 10 11 12 13 14 15 16 17 18 19 20 21
000
FTUS41 KBOX 021737
TAFBED
TAF
KBED 021737Z 0218/0318 27014G24KT P6SM SCT050
      TEMPO 0218/0222 BKN050
     FM022300 26007KT P6SM SCT250
     FM030500 27007KT P6SM BKN100
     FM030700 28007KT P6SM SCT100
     FM031500 31010G22KT P6SM SCT250=

USA.gov is the U.S. government's official web portal to all federal, state and local government web resources and services.